Time;durP1;ratioP1;P1;durP2;ratioP2;P2;SDS_P1;SDS_P2;PMS_P1;PMS_P2;Temp;Humidity;BMP_temperature;BMP_pressure;BME280_temperature;BME280_humidity;BME280_pressure;Samples;Min_cycle;Max_cycle;Signal;HPM_P1;HPM_P2
2022/02/21 00:00:09;;;;;;;2.40;1.10;;;9.10;99.90;;;;;;6118907;23;20416;-87
2022/02/21 00:02:36;;;;;;;2.90;1.13;;;9.10;99.90;;;;;;6116903;23;20476;-85
2022/02/21 00:05:03;;;;;;;2.13;0.80;;;9.00;99.90;;;;;;6119699;23;20420;-85
2022/02/21 00:07:38;;;;;;;1.13;0.67;;;9.10;99.90;;;;;;6082975;23;20392;-85
2022/02/21 00:10:07;;;;;;;5.37;1.27;;;9.00;99.90;;;;;;6103513;23;20827;-84
2022/02/21 00:12:35;;;;;;;1.30;0.73;;;9.00;99.90;;;;;;6085217;23;20433;-84
2022/02/21 00:15:06;;;;;;;1.77;0.60;;;9.00;99.90;;;;;;6108191;23;20476;-85
2022/02/21 00:17:33;;;;;;;2.00;0.90;;;8.90;99.90;;;;;;6084121;23;20476;-81
2022/02/21 00:20:09;;;;;;;1.53;0.77;;;8.90;99.90;;;;;;6107979;23;20413;-84
2022/02/21 00:22:36;;;;;;;2.23;0.90;;;8.90;99.90;;;;;;6108506;23;20508;-84
2022/02/21 00:25:06;;;;;;;6.00;1.17;;;8.80;99.90;;;;;;6108685;23;20452;-82
2022/02/21 00:27:43;;;;;;;;;;;;;;;;;;;;;
2022/02/21 00:30:11;;;;;;;1.90;0.87;;;8.90;99.90;;;;;;6099499;23;20428;-84
2022/02/21 00:32:41;;;;;;;3.40;0.97;;;8.90;99.90;;;;;;6072791;23;20454;-85
2022/02/21 00:35:09;;;;;;;4.43;1.23;;;8.90;99.90;;;;;;6067734;23;20662;-84
2022/02/21 00:37:39;;;;;;;1.53;0.93;;;8.90;99.90;;;;;;6060145;23;20455;-84
2022/02/21 00:40:18;;;;;;;5.20;0.97;;;8.90;99.90;;;;;;6060817;23;20444;-84
2022/02/21 00:42:47;;;;;;;3.10;1.30;;;8.90;99.90;;;;;;6088540;23;20920;-84
2022/02/21 00:45:34;;;;;;;2.57;1.00;;;8.90;99.90;;;;;;6071828;23;20421;-86
2022/02/21 00:48:04;;;;;;;1.60;0.97;;;8.90;99.90;;;;;;6078386;23;20495;-85
2022/02/21 00:50:40;;;;;;;2.40;1.00;;;9.00;99.90;;;;;;6077415;23;20415;-86
2022/02/21 00:53:07;;;;;;;2.40;0.93;;;9.00;99.90;;;;;;6066787;23;20530;-86
2022/02/21 00:55:44;;;;;;;2.67;1.10;;;9.00;99.90;;;;;;6091352;23;20416;-85
2022/02/21 00:58:15;;;;;;;4.47;2.27;;;8.90;99.90;;;;;;6066626;23;20475;-84
2022/02/21 01:00:59;;;;;;;3.10;1.03;;;8.90;99.90;;;;;;6089683;23;20445;-84
2022/02/21 01:03:40;;;;;;;3.47;1.23;;;8.90;99.90;;;;;;6090440;23;20436;-84
2022/02/21 01:06:32;;;;;;;1.63;0.80;;;9.00;99.90;;;;;;6066522;23;20420;-85
2022/02/21 01:09:09;;;;;;;2.40;0.80;;;9.10;99.90;;;;;;6064226;23;20471;-84
2022/02/21 01:11:45;;;;;;;11.47;1.57;;;9.10;99.90;;;;;;6067282;23;20448;-85
2022/02/21 01:14:15;;;;;;;4.77;1.07;;;9.20;99.90;;;;;;6088739;23;20701;-85
2022/02/21 01:16:45;;;;;;;7.00;1.17;;;9.20;99.90;;;;;;6088360;23;20480;-83
2022/02/21 01:19:15;;;;;;;2.87;1.37;;;9.20;99.90;;;;;;6087601;23;20992;-86
2022/02/21 01:21:56;;;;;;;4.43;0.83;;;9.20;99.90;;;;;;6089728;23;20495;-83
2022/02/21 01:24:29;;;;;;;2.90;1.00;;;8.60;99.90;;;;;;6063868;23;20411;-85
2022/02/21 01:27:01;;;;;;;1.70;0.50;;;8.00;99.90;;;;;;6088070;23;20419;-84
2022/02/21 01:29:28;;;;;;;2.10;0.83;;;7.70;99.90;;;;;;6061336;23;20429;-85
2022/02/21 01:32:00;;;;;;;2.60;0.60;;;7.60;99.90;;;;;;6085228;23;20511;-84
2022/02/21 01:34:29;;;;;;;3.07;1.37;;;7.60;99.90;;;;;;6059194;23;20452;-83
2022/02/21 01:37:01;;;;;;;1.70;0.97;;;7.70;99.90;;;;;;6088726;23;20401;-85
2022/02/21 01:39:27;;;;;;;3.30;0.87;;;7.80;99.90;;;;;;6089723;23;20447;-82
2022/02/21 01:41:54;;;;;;;0.83;0.80;;;7.80;99.90;;;;;;6065221;23;20439;-81
2022/02/21 01:44:34;;;;;;;1.57;0.80;;;7.90;99.90;;;;;;6065059;23;20948;-83
2022/02/21 01:47:02;;;;;;;2.97;1.03;;;7.90;99.90;;;;;;6086440;23;20527;-84
2022/02/21 01:49:28;;;;;;;3.47;1.53;;;8.00;99.90;;;;;;6063485;23;20401;-84
2022/02/21 01:51:55;;;;;;;0.67;0.67;;;8.10;99.90;;;;;;6090972;23;20432;-84
2022/02/21 01:54:22;;;;;;;4.80;1.30;;;8.10;99.90;;;;;;6063962;23;20913;-84
2022/02/21 01:56:49;;;;;;;0.70;0.60;;;8.10;99.90;;;;;;6063222;23;20596;-84
2022/02/21 01:59:16;;;;;;;4.33;1.10;;;8.10;99.90;;;;;;6091751;23;20444;-85
2022/02/21 02:01:42;;;;;;;3.10;1.23;;;8.10;99.90;;;;;;6085052;23;20433;-85
2022/02/21 02:04:10;;;;;;;4.43;1.20;;;8.00;99.90;;;;;;6060306;23;20639;-85
2022/02/21 02:06:37;;;;;;;3.13;1.30;;;8.00;99.90;;;;;;6087702;23;20416;-83
2022/02/21 02:09:04;;;;;;;5.07;1.20;;;8.00;99.90;;;;;;6059101;23;20503;-83
2022/02/21 02:11:34;;;;;;;7.03;1.83;;;8.00;99.90;;;;;;6086859;23;20437;-85
2022/02/21 02:14:00;;;;;;;3.03;1.17;;;8.00;99.50;;;;;;6065659;23;20516;-84
2022/02/21 02:16:27;;;;;;;3.70;1.30;;;8.00;99.90;;;;;;6090774;23;20464;-83
2022/02/21 02:18:57;;;;;;;2.00;0.70;;;7.90;98.50;;;;;;6091329;23;20502;-84
2022/02/21 02:21:26;;;;;;;4.87;1.00;;;7.80;97.30;;;;;;6067739;23;20882;-85
2022/02/21 02:23:54;;;;;;;1.67;0.70;;;7.80;96.70;;;;;;6091156;23;20472;-83
2022/02/21 02:26:22;;;;;;;2.27;1.10;;;7.80;96.40;;;;;;6065787;23;20519;-85
2022/02/21 02:28:51;;;;;;;5.17;1.27;;;7.80;96.70;;;;;;6065049;23;21021;-86
2022/02/21 02:31:18;;;;;;;3.30;0.90;;;7.70;96.80;;;;;;6088281;23;20436;-85
2022/02/21 02:33:45;;;;;;;3.50;0.70;;;7.70;97.40;;;;;;6066661;23;20424;-85
2022/02/21 02:36:12;;;;;;;4.33;1.27;;;7.70;97.90;;;;;;6090023;23;20518;-84
2022/02/21 02:38:39;;;;;;;3.90;1.43;;;7.70;97.80;;;;;;6065641;23;20456;-84
2022/02/21 02:41:10;;;;;;;2.23;1.30;;;7.70;97.90;;;;;;6066539;23;20440;-85
2022/02/21 02:43:38;;;;;;;4.30;1.10;;;7.70;97.90;;;;;;6066535;23;20413;-81
2022/02/21 02:46:06;;;;;;;3.30;1.30;;;7.60;97.90;;;;;;6087824;23;20416;-86
2022/02/21 02:48:33;;;;;;;4.40;1.30;;;7.70;98.10;;;;;;6067351;23;20393;-86
2022/02/21 02:51:00;;;;;;;3.43;1.00;;;7.70;98.00;;;;;;6101390;23;20443;-84
2022/02/21 02:53:31;;;;;;;3.33;0.97;;;7.60;97.20;;;;;;6067255;23;20551;-83
2022/02/21 02:55:58;;;;;;;2.60;0.90;;;7.60;96.60;;;;;;6065886;23;20467;-86
2022/02/21 02:58:24;;;;;;;2.90;1.03;;;7.60;96.90;;;;;;6091780;23;20449;-84
2022/02/21 03:00:51;;;;;;;1.20;0.80;;;7.50;96.80;;;;;;6090488;23;20488;-85
2022/02/21 03:03:19;;;;;;;1.27;0.80;;;7.40;97.40;;;;;;6068012;23;20420;-84
2022/02/21 03:05:46;;;;;;;4.43;0.80;;;7.30;97.90;;;;;;6092286;23;20487;-85
2022/02/21 03:08:12;;;;;;;2.60;0.70;;;7.30;97.90;;;;;;6091599;23;20852;-85
2022/02/21 03:10:39;;;;;;;0.97;0.80;;;7.30;98.70;;;;;;6092574;23;20436;-84
2022/02/21 03:13:06;;;;;;;2.60;1.20;;;7.20;99.60;;;;;;6064997;23;20413;-85
2022/02/21 03:15:32;;;;;;;2.13;1.10;;;7.10;99.90;;;;;;6065249;23;20405;-85
2022/02/21 03:17:59;;;;;;;2.97;1.00;;;7.00;99.90;;;;;;6090193;23;20529;-83
2022/02/21 03:20:26;;;;;;;2.00;0.97;;;7.00;99.90;;;;;;6092150;23;20439;-84
2022/02/21 03:22:52;;;;;;;6.73;1.20;;;7.00;99.90;;;;;;6088231;23;20429;-86
2022/02/21 03:25:20;;;;;;;7.67;1.13;;;6.90;99.90;;;;;;6092999;23;20443;-83
2022/02/21 03:27:46;;;;;;;3.97;1.00;;;6.90;99.90;;;;;;6066463;23;20417;-86
2022/02/21 03:30:17;;;;;;;2.67;1.20;;;7.00;99.90;;;;;;6094408;23;20448;-85
2022/02/21 03:32:44;;;;;;;3.67;1.10;;;6.90;99.90;;;;;;6078222;23;20604;-85
2022/02/21 03:35:13;;;;;;;3.23;1.30;;;7.00;99.90;;;;;;6079702;23;20435;-84
2022/02/21 03:37:40;;;;;;;3.73;0.97;;;7.00;99.90;;;;;;6079487;23;20535;-83
2022/02/21 03:40:08;;;;;;;4.43;1.17;;;7.10;99.90;;;;;;6102110;23;20441;-86
2022/02/21 03:42:35;;;;;;;2.40;1.47;;;7.10;99.90;;;;;;6090324;23;20816;-85
2022/02/21 03:45:04;;;;;;;1.67;1.07;;;7.10;99.90;;;;;;6063237;23;20419;-83
2022/02/21 03:47:31;;;;;;;2.57;1.30;;;7.10;99.90;;;;;;6088165;23;20420;-85
2022/02/21 03:49:57;;;;;;;4.10;1.63;;;7.10;99.90;;;;;;6063119;23;20906;-85
2022/02/21 03:52:24;;;;;;;1.40;1.00;;;7.10;99.50;;;;;;6092174;23;20723;-84
2022/02/21 03:54:51;;;;;;;4.80;1.40;;;7.20;98.60;;;;;;6077310;23;20622;-86
2022/02/21 03:57:17;;;;;;;3.30;1.40;;;7.20;98.20;;;;;;6077887;23;20419;-85
2022/02/21 03:59:44;;;;;;;2.43;1.53;;;7.30;97.80;;;;;;6076670;23;20443;-85
2022/02/21 04:02:11;;;;;;;2.50;1.10;;;7.30;97.50;;;;;;6101448;23;20435;-85
2022/02/21 04:04:37;;;;;;;3.03;1.40;;;7.20;97.30;;;;;;6079508;23;20471;-87
2022/02/21 04:07:05;;;;;;;2.87;1.03;;;7.30;97.60;;;;;;6107246;23;20412;-84
2022/02/21 04:09:31;;;;;;;2.60;1.20;;;7.20;96.80;;;;;;6108435;23;20427;-86
2022/02/21 04:11:58;;;;;;;2.40;1.30;;;7.20;96.60;;;;;;6112024;23;20437;-85
2022/02/21 04:14:25;;;;;;;3.10;1.20;;;7.20;96.70;;;;;;6112073;23;20424;-85
2022/02/21 04:16:52;;;;;;;1.53;0.93;;;7.20;96.60;;;;;;6086853;23;20409;-86
2022/02/21 04:19:22;;;;;;;4.60;0.97;;;7.20;97.40;;;;;;6112480;23;20424;-85
2022/02/21 04:21:53;;;;;;;3.13;1.00;;;7.00;98.30;;;;;;6110438;23;20468;-86
2022/02/21 04:24:20;;;;;;;2.17;0.90;;;6.90;99.10;;;;;;6080667;23;20406;-85
2022/02/21 04:26:47;;;;;;;4.70;1.87;;;6.90;99.80;;;;;;6079687;23;20416;-84
2022/02/21 04:29:22;;;;;;;2.80;1.13;;;6.80;99.90;;;;;;6112534;23;20408;-86
2022/02/21 04:31:51;;;;;;;2.40;1.00;;;6.80;99.90;;;;;;6113071;23;20461;-83
2022/02/21 04:34:32;;;;;;;2.43;0.90;;;6.80;99.90;;;;;;6086234;23;20449;-83
2022/02/21 04:36:59;;;;;;;2.50;1.03;;;6.80;99.90;;;;;;6107949;23;20401;-82
2022/02/21 04:39:26;;;;;;;5.63;1.63;;;6.80;99.90;;;;;;6099613;23;20897;-85
2022/02/21 04:41:52;;;;;;;3.37;1.20;;;6.80;99.90;;;;;;6086992;23;20511;-84
2022/02/21 04:44:22;;;;;;;3.67;1.23;;;6.70;99.90;;;;;;6102458;23;20412;-85
2022/02/21 04:46:55;;;;;;;2.97;1.13;;;6.60;99.90;;;;;;6102618;23;20488;-84
2022/02/21 04:49:24;;;;;;;4.10;1.60;;;6.60;99.90;;;;;;6075799;23;21097;-84
2022/02/21 04:51:52;;;;;;;3.87;1.20;;;6.60;99.90;;;;;;6100395;23;20951;-84
2022/02/21 04:54:19;;;;;;;4.60;1.47;;;6.60;99.90;;;;;;6102041;23;21071;-85
2022/02/21 04:56:49;;;;;;;3.33;1.40;;;6.60;99.90;;;;;;6102556;23;20419;-84
2022/02/21 04:59:21;;;;;;;5.50;1.23;;;6.70;99.90;;;;;;6101792;23;20444;-85
2022/02/21 05:01:52;;;;;;;4.60;1.70;;;6.70;99.90;;;;;;6075803;23;20433;-85
2022/02/21 05:04:19;;;;;;;3.03;1.40;;;6.70;98.30;;;;;;6075936;23;21113;-83
2022/02/21 05:06:49;;;;;;;4.83;1.70;;;6.80;97.10;;;;;;6098212;23;20424;-81
2022/02/21 05:09:23;;;;;;;3.60;1.70;;;6.80;96.60;;;;;;6089904;23;20405;-84
2022/02/21 05:11:49;;;;;;;6.03;1.50;;;6.90;96.60;;;;;;6066190;23;21012;-85
2022/02/21 05:14:16;;;;;;;6.87;2.27;;;6.90;96.70;;;;;;6091110;23;20426;-83
2022/02/21 05:16:45;;;;;;;7.83;2.00;;;6.90;96.40;;;;;;6066164;23;20420;-84
2022/02/21 05:19:20;;;;;;;8.90;1.83;;;7.00;96.80;;;;;;6102473;23;21040;-84
2022/02/21 05:21:47;;;;;;;7.20;2.17;;;7.00;96.90;;;;;;6102081;23;20444;-84
2022/02/21 05:24:16;;;;;;;6.53;2.13;;;7.00;96.30;;;;;;6102391;23;20413;-84
2022/02/21 05:26:43;;;;;;;4.43;1.80;;;7.00;96.20;;;;;;6102947;23;20400;-85
2022/02/21 05:29:15;;;;;;;5.60;2.00;;;7.00;96.00;;;;;;6076565;23;20909;-84
2022/02/21 05:31:42;;;;;;;5.90;1.57;;;7.00;95.50;;;;;;6080578;23;20453;-84
2022/02/21 05:34:09;;;;;;;5.23;1.90;;;7.00;95.00;;;;;;6078593;23;21090;-84
2022/02/21 05:36:38;;;;;;;4.93;1.80;;;7.00;95.00;;;;;;6107407;23;20414;-84
2022/02/21 05:39:08;;;;;;;5.20;2.37;;;7.00;95.00;;;;;;6105584;23;20523;-85
2022/02/21 05:41:46;;;;;;;5.87;1.50;;;7.00;94.80;;;;;;6105319;23;20443;-86
2022/02/21 05:44:16;;;;;;;6.17;1.83;;;7.00;94.50;;;;;;6107200;23;20420;-84
2022/02/21 05:46:47;;;;;;;6.17;1.70;;;7.00;94.70;;;;;;6106838;23;20409;-84
2022/02/21 05:49:18;;;;;;;5.87;2.27;;;7.00;94.60;;;;;;6106036;23;20487;-84
2022/02/21 05:51:47;;;;;;;2.70;1.30;;;6.90;94.30;;;;;;6081711;23;20436;-84
2022/02/21 05:54:18;;;;;;;5.87;2.00;;;6.90;94.20;;;;;;6104635;23;20425;-86
2022/02/21 05:56:50;;;;;;;5.67;1.90;;;7.00;94.20;;;;;;6106187;23;20417;-85
2022/02/21 05:59:20;;;;;;;7.73;2.03;;;6.90;94.20;;;;;;6079610;23;20444;-86
2022/02/21 06:01:52;;;;;;;6.90;2.40;;;6.90;94.40;;;;;;6103134;23;20444;-85
2022/02/21 06:04:24;;;;;;;5.77;2.10;;;6.90;94.30;;;;;;6080712;23;20492;-84
2022/02/21 06:06:53;;;;;;;4.87;2.10;;;6.90;93.80;;;;;;6085443;23;20476;-83
2022/02/21 06:09:25;;;;;;;6.00;1.80;;;6.90;94.00;;;;;;6071908;23;20424;-83
2022/02/21 06:11:54;;;;;;;4.10;1.80;;;6.90;94.10;;;;;;6068521;23;20431;-83
2022/02/21 06:14:21;;;;;;;6.60;2.27;;;6.90;94.50;;;;;;6069366;23;20420;-86
2022/02/21 06:16:52;;;;;;;8.53;1.93;;;6.90;94.30;;;;;;6073257;23;20396;-85
2022/02/21 06:19:22;;;;;;;11.10;2.20;;;6.90;94.30;;;;;;6103092;23;20441;-85
2022/02/21 06:21:49;;;;;;;6.93;2.10;;;6.90;94.20;;;;;;6100716;23;20436;-85
2022/02/21 06:24:17;;;;;;;5.63;1.90;;;6.90;94.10;;;;;;6080947;23;20417;-84
2022/02/21 06:26:48;;;;;;;8.27;3.03;;;6.90;94.80;;;;;;6105678;23;20431;-85
2022/02/21 06:29:15;;;;;;;6.00;2.20;;;6.90;94.40;;;;;;6104352;23;20421;-85
2022/02/21 06:31:42;;;;;;;6.57;2.00;;;6.90;94.40;;;;;;6078956;23;20460;-84
2022/02/21 06:34:09;;;;;;;4.00;1.43;;;6.90;94.10;;;;;;6104885;23;20416;-84
2022/02/21 06:36:37;;;;;;;3.23;1.50;;;7.00;94.10;;;;;;6079815;23;20408;-84
2022/02/21 06:39:04;;;;;;;12.63;2.17;;;7.00;94.00;;;;;;6078987;23;20444;-84
2022/02/21 06:41:38;;;;;;;6.10;2.30;;;7.00;93.80;;;;;;6078962;23;20432;-82
2022/02/21 06:44:06;;;;;;;6.80;1.93;;;7.00;93.90;;;;;;6078715;23;20416;-81
2022/02/21 06:46:36;;;;;;;7.10;2.17;;;7.00;94.20;;;;;;6078525;23;20424;-85
2022/02/21 06:49:05;;;;;;;3.60;2.00;;;7.00;94.70;;;;;;6079686;23;20809;-84
2022/02/21 06:51:36;;;;;;;8.67;2.60;;;6.90;95.30;;;;;;6104991;23;21030;-83
2022/02/21 06:54:22;;;;;;;7.77;2.17;;;6.90;96.30;;;;;;6119141;23;20397;-85
2022/02/21 06:56:57;;;;;;;8.70;2.30;;;7.00;97.00;;;;;;6098540;23;20434;-84
2022/02/21 06:59:33;;;;;;;6.10;1.83;;;7.10;97.60;;;;;;6121400;23;20452;-84
2022/02/21 07:02:04;;;;;;;5.70;2.00;;;7.00;98.00;;;;;;6096808;23;20471;-85
2022/02/21 07:04:48;;;;;;;6.97;2.97;;;7.00;98.40;;;;;;6098784;23;20440;-86
2022/02/21 07:07:15;;;;;;;7.63;1.83;;;7.00;98.80;;;;;;6097129;23;20399;-83
2022/02/21 07:09:47;;;;;;;5.93;1.83;;;6.90;99.30;;;;;;6109462;23;20419;-84
2022/02/21 07:12:19;;;;;;;6.53;2.70;;;6.90;99.80;;;;;;6090387;23;20436;-84
2022/02/21 07:14:53;;;;;;;10.93;2.90;;;6.80;99.60;;;;;;6110193;23;20414;-84
2022/02/21 07:17:23;;;;;;;4.57;1.80;;;6.70;97.90;;;;;;6111662;23;20440;-85
2022/02/21 07:19:51;;;;;;;7.27;1.87;;;6.80;97.80;;;;;;6112771;23;20483;-86
2022/02/21 07:22:18;;;;;;;7.93;3.50;;;6.90;97.60;;;;;;6091125;23;20515;-84
2022/02/21 07:24:50;;;;;;;6.27;2.50;;;6.90;98.10;;;;;;6124173;23;20400;-85
2022/02/21 07:27:17;;;;;;;8.27;2.30;;;7.20;98.60;;;;;;6099568;23;20415;-83
2022/02/21 07:29:43;;;;;;;5.80;1.83;;;7.10;97.70;;;;;;6124086;23;20483;-85
2022/02/21 07:32:11;;;;;;;4.27;1.90;;;7.10;96.30;;;;;;6097865;23;20443;-82
2022/02/21 07:34:38;;;;;;;7.40;2.00;;;7.10;94.60;;;;;;6122684;23;20487;-85
2022/02/21 07:37:06;;;;;;;7.00;1.60;;;7.20;94.00;;;;;;6097752;23;20579;-84
2022/02/21 07:39:33;;;;;;;7.00;2.33;;;7.20;93.60;;;;;;6098263;23;20491;-83
2022/02/21 07:42:03;;;;;;;7.73;1.50;;;7.20;93.40;;;;;;6098585;23;20436;-82
2022/02/21 07:44:31;;;;;;;4.97;1.83;;;8.10;93.30;;;;;;6097417;23;20408;-81
2022/02/21 07:46:59;;;;;;;5.30;1.63;;;8.20;91.70;;;;;;6121616;23;20441;-82
2022/02/21 07:49:26;;;;;;;5.10;2.00;;;8.00;91.60;;;;;;6094289;23;20468;-85
2022/02/21 07:51:53;;;;;;;5.37;1.70;;;8.40;91.60;;;;;;6094234;23;20438;-81
2022/02/21 07:54:19;;;;;;;5.27;2.23;;;8.80;90.80;;;;;;6097488;23;20452;-83
2022/02/21 07:57:06;;;;;;;4.33;1.70;;;8.40;90.40;;;;;;6097561;23;20410;-84
2022/02/21 07:59:33;;;;;;;4.80;2.27;;;8.30;90.80;;;;;;6082371;23;20464;-85
2022/02/21 08:02:00;;;;;;;6.10;2.23;;;8.50;90.70;;;;;;6078593;23;20453;-86
2022/02/21 08:04:39;;;;;;;5.70;2.03;;;8.60;90.40;;;;;;6086806;23;20404;-86
2022/02/21 08:07:07;;;;;;;4.30;1.40;;;8.20;90.30;;;;;;6096058;23;20483;-85
2022/02/21 08:09:34;;;;;;;6.47;2.67;;;7.90;90.40;;;;;;6120044;23;20418;-85
2022/02/21 08:12:07;;;;;;;7.20;1.87;;;7.80;90.80;;;;;;6095025;23;20456;-85
2022/02/21 08:14:45;;;;;;;9.23;2.80;;;7.70;91.00;;;;;;6122959;23;20415;-86
2022/02/21 08:17:13;;;;;;;2.93;1.47;;;7.60;91.00;;;;;;6092735;23;20448;-85
2022/02/21 08:19:48;;;;;;;4.90;2.00;;;7.60;91.20;;;;;;6116530;23;20432;-83
2022/02/21 08:22:18;;;;;;;4.33;1.50;;;7.60;91.40;;;;;;6098204;23;20421;-84
2022/02/21 08:24:54;;;;;;;5.83;1.57;;;7.70;91.40;;;;;;6100064;23;20396;-86
2022/02/21 08:27:38;;;;;;;5.37;1.20;;;7.70;90.80;;;;;;6100909;23;20415;-86
2022/02/21 08:30:22;;;;;;;4.20;1.63;;;7.70;91.00;;;;;;6101049;23;20365;-83
2022/02/21 08:32:53;;;;;;;5.00;1.43;;;7.80;90.40;;;;;;6098715;23;20425;-85
2022/02/21 08:35:37;;;;;;;4.83;1.40;;;7.80;90.40;;;;;;6087218;23;20393;-82
2022/02/21 08:38:10;;;;;;;4.63;1.93;;;7.80;90.40;;;;;;6099484;23;20392;-85
2022/02/21 08:40:45;;;;;;;4.47;1.27;;;7.90;90.50;;;;;;6098635;23;20496;-86
2022/02/21 08:43:37;;;;;;;;;;;;;;;;;;;;;
2022/02/21 08:46:37;;;;;;;;;;;;;;;;;;;;;
2022/02/21 08:49:09;;;;;;;3.40;1.30;;;8.10;89.80;;;;;;6120450;23;20440;-86
2022/02/21 08:51:41;;;;;;;5.27;1.80;;;8.30;89.50;;;;;;6096183;23;20440;-86
2022/02/21 08:54:23;;;;;;;5.23;1.47;;;8.00;88.80;;;;;;6082444;23;20405;-87
2022/02/21 08:56:55;;;;;;;4.20;1.40;;;8.20;88.90;;;;;;6084526;23;20492;-85
2022/02/21 08:59:33;;;;;;;4.10;1.80;;;8.10;88.80;;;;;;6088110;23;20423;-86
2022/02/21 09:02:27;;;;;;;8.30;2.07;;;8.10;89.60;;;;;;6102201;23;20432;-86
2022/02/21 09:05:47;;;;;;;4.60;1.40;;;8.10;89.20;;;;;;6105765;23;20405;-85
2022/02/21 09:08:40;;;;;;;6.17;1.63;;;8.00;89.00;;;;;;6082557;23;20427;-86
2022/02/21 09:11:28;;;;;;;5.17;1.53;;;8.00;89.50;;;;;;6098797;23;20428;-85
2022/02/21 09:14:39;;;;;;;5.13;1.77;;;8.00;89.60;;;;;;6105095;23;20433;-86
2022/02/21 09:17:29;;;;;;;5.80;1.67;;;8.10;89.60;;;;;;6079223;23;20436;-87
2022/02/21 09:20:12;;;;;;;5.70;2.03;;;8.20;89.60;;;;;;6083385;23;20470;-86
2022/02/21 09:22:45;;;;;;;5.07;1.83;;;8.30;89.00;;;;;;6105603;23;20964;-84
2022/02/21 09:25:25;;;;;;;3.53;1.30;;;8.40;87.80;;;;;;6081136;23;20416;-84
2022/02/21 09:28:00;;;;;;;7.53;2.13;;;8.60;86.70;;;;;;6104617;23;20408;-86
2022/02/21 09:30:34;;;;;;;6.80;1.50;;;8.40;86.50;;;;;;6081517;23;20435;-86
2022/02/21 09:33:07;;;;;;;4.80;1.60;;;8.40;87.50;;;;;;6080875;23;20408;-87
2022/02/21 09:35:54;;;;;;;6.23;1.83;;;8.50;87.20;;;;;;6085608;23;20443;-85
2022/02/21 09:38:32;;;;;;;6.83;1.70;;;8.70;86.60;;;;;;6104802;23;20904;-86
2022/02/21 09:41:09;;;;;;;4.00;1.17;;;8.70;86.40;;;;;;6078066;23;20464;-85
2022/02/21 09:43:48;;;;;;;4.63;1.97;;;8.70;86.20;;;;;;6077042;23;20413;-84
2022/02/21 09:46:30;;;;;;;9.70;3.30;;;8.60;86.50;;;;;;6081772;23;20424;-84
2022/02/21 09:49:05;;;;;;;3.33;1.60;;;8.90;86.30;;;;;;6106209;23;20467;-85
2022/02/21 09:51:48;;;;;;;6.53;2.13;;;8.90;85.90;;;;;;6080476;23;21043;-86
2022/02/21 09:54:23;;;;;;;9.07;1.60;;;8.80;85.90;;;;;;6078623;23;20491;-84
2022/02/21 09:57:20;;;;;;;4.30;1.53;;;9.00;86.30;;;;;;6077968;23;20424;-86
2022/02/21 10:00:22;;;;;;;8.20;1.97;;;9.20;85.90;;;;;;6002326;23;20491;-85
2022/02/21 10:03:09;;;;;;;;;;;;;;;;;;;;;
2022/02/21 10:06:24;;;;;;;8.47;3.30;;;9.00;85.20;;;;;;6097601;23;20419;-85
2022/02/21 10:09:16;;;;;;;7.33;2.03;;;8.70;86.80;;;;;;6093795;23;20771;-83
2022/02/21 10:11:58;;;;;;;7.93;1.63;;;8.90;86.50;;;;;;6090651;23;20477;-85
2022/02/21 10:14:42;;;;;;;7.40;2.93;;;8.80;87.20;;;;;;6067015;23;20417;-84
2022/02/21 10:17:25;;;;;;;12.97;1.90;;;8.90;86.70;;;;;;6099167;23;20459;-85
2022/02/21 10:20:20;;;;;;;5.93;1.77;;;8.80;87.30;;;;;;6070872;23;20444;-84
2022/02/21 10:23:23;;;;;;;6.83;1.90;;;8.80;88.20;;;;;;6077062;23;20459;-86
2022/02/21 10:26:03;;;;;;;4.63;1.90;;;8.60;88.80;;;;;;5990226;23;20541;-85
2022/02/21 10:28:44;;;;;;;5.03;1.60;;;8.70;89.90;;;;;;6061205;23;20449;-85
2022/02/21 10:31:27;;;;;;;6.90;2.57;;;8.90;90.20;;;;;;6053672;23;20445;-84
2022/02/21 10:34:11;;;;;;;4.20;1.37;;;9.10;89.70;;;;;;6032613;23;20426;-83
2022/02/21 10:37:17;;;;;;;4.23;2.30;;;8.70;90.10;;;;;;6032266;23;20419;-85
2022/02/21 10:39:48;;;;;;;6.00;2.00;;;8.80;90.70;;;;;;6035412;23;20510;-86
2022/02/21 10:42:50;;;;;;;11.13;2.03;;;8.90;90.90;;;;;;6033676;23;20438;-85
2022/02/21 10:46:09;;;;;;;9.10;2.20;;;8.80;91.30;;;;;;6007123;23;20426;-85
2022/02/21 10:48:53;;;;;;;7.30;1.80;;;8.70;91.80;;;;;;6042994;23;20434;-83
2022/02/21 10:51:57;;;;;;;8.50;1.90;;;8.80;92.20;;;;;;6049018;23;20426;-86
2022/02/21 10:54:48;;;;;;;5.37;1.73;;;8.70;92.80;;;;;;6047274;23;20397;-86
2022/02/21 10:57:31;;;;;;;5.27;1.60;;;8.70;93.80;;;;;;6047283;23;20399;-85
2022/02/21 11:00:04;;;;;;;5.57;1.43;;;8.50;95.00;;;;;;6034999;23;20445;-83
2022/02/21 11:02:55;;;;;;;4.90;1.73;;;8.40;96.30;;;;;;6055323;23;20517;-84
2022/02/21 11:05:32;;;;;;;3.73;1.67;;;8.40;97.70;;;;;;6034634;23;20422;-85
2022/02/21 11:08:08;;;;;;;5.67;1.87;;;8.20;98.70;;;;;;6033890;23;20414;-84
2022/02/21 11:11:23;;;;;;;5.30;1.90;;;8.10;99.30;;;;;;6040233;23;20538;-85
2022/02/21 11:14:01;;;;;;;8.20;1.70;;;8.20;99.60;;;;;;5984513;23;20454;-84
2022/02/21 11:16:42;;;;;;;8.23;2.17;;;8.10;99.90;;;;;;6045673;23;20449;-84
2022/02/21 11:19:20;;;;;;;6.13;2.00;;;7.90;99.90;;;;;;6043890;23;20429;-85
2022/02/21 11:22:00;;;;;;;5.50;1.73;;;8.00;99.90;;;;;;6040114;23;20482;-85
2022/02/21 11:24:34;;;;;;;5.00;1.70;;;;;;;;;;6051889;23;20418;-82
2022/02/21 11:27:34;;;;;;;6.57;1.87;;;8.40;99.90;;;;;;6059679;23;20414;-84
2022/02/21 11:30:19;;;;;;;4.10;1.67;;;8.30;99.90;;;;;;6060979;23;20414;-85
2022/02/21 11:33:03;;;;;;;3.23;1.57;;;8.30;99.90;;;;;;6054722;23;20446;-83
2022/02/21 11:35:45;;;;;;;5.83;1.80;;;8.30;99.90;;;;;;6071432;23;20418;-84
2022/02/21 11:38:35;;;;;;;5.23;2.20;;;8.30;99.90;;;;;;6050296;23;20426;-85
2022/02/21 11:41:15;;;;;;;7.40;1.83;;;8.50;99.90;;;;;;6054264;23;20568;-83
2022/02/21 11:43:49;;;;;;;7.70;1.90;;;8.30;99.90;;;;;;6049027;23;20512;-85
2022/02/21 11:46:45;;;;;;;8.80;1.37;;;8.10;99.90;;;;;;6057129;23;20418;-82
2022/02/21 11:49:31;;;;;;;1.50;0.90;;;7.90;99.90;;;;;;6046780;23;20425;-84
2022/02/21 11:52:37;;;;;;;2.40;1.47;;;7.70;99.90;;;;;;6047785;23;20477;-83
2022/02/21 11:55:35;;;;;;;3.10;1.20;;;7.60;99.90;;;;;;6043668;23;20432;-84
2022/02/21 11:58:16;;;;;;;2.17;1.00;;;7.60;99.90;;;;;;6064992;23;20534;-85
2022/02/21 12:01:20;;;;;;;4.07;0.90;;;7.70;99.90;;;;;;6048598;23;20860;-85
2022/02/21 12:04:16;;;;;;;3.60;1.40;;;7.80;99.90;;;;;;6040122;23;20549;-85
2022/02/21 12:06:56;;;;;;;1.43;1.07;;;7.60;99.90;;;;;;6033898;23;20473;-85
2022/02/21 12:09:54;;;;;;;3.10;0.97;;;7.40;99.90;;;;;;6032898;23;20497;-85
2022/02/21 12:12:30;;;;;;;2.43;0.87;;;7.50;99.90;;;;;;6031950;23;20431;-84
2022/02/21 12:15:17;;;;;;;1.97;0.67;;;7.50;99.90;;;;;;6041815;23;20894;-83
2022/02/21 12:18:26;;;;;;;3.70;1.00;;;7.50;99.90;;;;;;6043512;23;20473;-83
2022/02/21 12:21:28;;;;;;;2.10;1.07;;;7.50;99.90;;;;;;6048627;23;20460;-85
2022/02/21 12:24:13;;;;;;;6.17;1.07;;;7.50;99.90;;;;;;6005922;23;20455;-85
2022/02/21 12:26:46;;;;;;;1.43;0.90;;;7.50;99.90;;;;;;6045260;23;20418;-85
2022/02/21 12:29:21;;;;;;;1.77;1.23;;;7.50;99.90;;;;;;6043338;23;20481;-85
2022/02/21 12:32:11;;;;;;;2.83;1.10;;;7.70;99.90;;;;;;6046308;23;20445;-86
2022/02/21 12:34:43;;;;;;;1.43;0.93;;;7.60;99.90;;;;;;6045945;23;20493;-85
2022/02/21 12:37:34;;;;;;;1.93;1.20;;;7.60;99.90;;;;;;5937084;24;20477;-85
2022/02/21 12:42:57;;;;;;;6.37;1.30;;;7.80;99.90;;;;;;5956996;24;20421;-86
2022/02/21 12:45:58;;;;;;;4.23;1.30;;;7.80;99.90;;;;;;5938873;24;20484;-86
2022/02/21 12:48:38;;;;;;;1.90;0.87;;;7.80;99.90;;;;;;5961537;24;20429;-83
2022/02/21 12:51:56;;;;;;;3.60;1.00;;;7.80;99.90;;;;;;5958975;24;20466;-87
2022/02/21 12:58:12;;;;;;;0.93;0.73;;;7.80;99.90;;;;;;5960530;24;20760;-85
2022/02/21 13:00:56;;;;;;;2.67;0.97;;;7.90;99.90;;;;;;5958253;24;20464;-85
2022/02/21 13:03:56;;;;;;;0.77;0.53;;;7.80;99.90;;;;;;5933283;24;20413;-85
2022/02/21 13:06:45;;;;;;;4.40;0.90;;;8.00;99.90;;;;;;5949167;24;20452;-85
2022/02/21 13:09:55;;;;;;;3.80;1.63;;;8.10;99.90;;;;;;6028835;23;20445;-84
2022/02/21 13:12:48;;;;;;;;;;;;;;;;;;;;;
2022/02/21 13:15:44;;;;;;;5.07;1.00;;;8.10;99.90;;;;;;6036109;23;20614;-84
2022/02/21 13:18:21;;;;;;;5.67;1.40;;;8.20;99.90;;;;;;6042682;23;20477;-84
2022/02/21 13:21:14;;;;;;;2.27;1.47;;;8.30;99.90;;;;;;6042281;23;20454;-86
2022/02/21 13:24:05;;;;;;;3.33;1.60;;;8.30;99.90;;;;;;6048423;23;20477;-85
2022/02/21 13:27:20;;;;;;;4.03;1.67;;;8.30;99.90;;;;;;6043579;23;20493;-84
2022/02/21 13:30:30;;;;;;;3.20;2.90;;;8.40;99.90;;;;;;6038905;23;20477;-83
2022/02/21 13:33:14;;;;;;;5.40;1.77;;;8.30;99.90;;;;;;6037142;23;20489;-82
2022/02/21 13:36:06;;;;;;;3.50;1.30;;;8.30;99.90;;;;;;6048962;23;20411;-86
2022/02/21 13:39:08;;;;;;;3.87;1.50;;;8.40;99.90;;;;;;6045706;23;20520;-82
2022/02/21 13:42:01;;;;;;;4.87;1.30;;;8.40;99.90;;;;;;6062405;23;20538;-82
2022/02/21 13:44:36;;;;;;;3.67;1.50;;;8.40;99.90;;;;;;6040470;23;20583;-83
2022/02/21 13:47:28;;;;;;;9.23;2.40;;;8.40;99.90;;;;;;6038665;23;20841;-83
2022/02/21 13:50:52;;;;;;;8.97;2.93;;;8.50;99.90;;;;;;6040364;23;20425;-84
2022/02/21 13:53:41;;;;;;;6.40;2.37;;;8.30;99.90;;;;;;6061919;23;20414;-85
2022/02/21 13:56:37;;;;;;;6.83;1.90;;;8.30;99.90;;;;;;6038738;23;20411;-84